sensor_id;sensor_type;location;lat;lon;timestamp;P1;durP1;ratioP1;P2;durP2;ratioP2
48588;SDS011;34369;51.174;6.738;2023-06-24T00:02:29;28.70;;;26.60;;
48588;SDS011;34369;51.174;6.738;2023-06-24T00:05:04;29.33;;;27.25;;
48588;SDS011;34369;51.174;6.738;2023-06-24T00:10:14;29.50;;;27.33;;
48588;SDS011;34369;51.174;6.738;2023-06-24T00:12:47;29.02;;;26.73;;
48588;SDS011;34369;51.174;6.738;2023-06-24T00:15:19;29.65;;;27.33;;
48588;SDS011;34369;51.174;6.738;2023-06-24T00:17:52;28.30;;;26.27;;
48588;SDS011;34369;51.174;6.738;2023-06-24T00:20:31;28.20;;;26.20;;
48588;SDS011;34369;51.174;6.738;2023-06-24T00:23:03;28.98;;;26.90;;
48588;SDS011;34369;51.174;6.738;2023-06-24T00:25:37;28.55;;;26.48;;
48588;SDS011;34369;51.174;6.738;2023-06-24T00:28:09;28.98;;;26.98;;
48588;SDS011;34369;51.174;6.738;2023-06-24T00:30:41;28.88;;;26.88;;
48588;SDS011;34369;51.174;6.738;2023-06-24T00:33:14;28.83;;;26.60;;
48588;SDS011;34369;51.174;6.738;2023-06-24T00:35:50;28.52;;;26.42;;
48588;SDS011;34369;51.174;6.738;2023-06-24T00:38:22;29.42;;;27.33;;
48588;SDS011;34369;51.174;6.738;2023-06-24T00:40:54;29.38;;;27.27;;
48588;SDS011;34369;51.174;6.738;2023-06-24T00:43:27;28.55;;;26.55;;
48588;SDS011;34369;51.174;6.738;2023-06-24T00:46:01;28.90;;;26.90;;
48588;SDS011;34369;51.174;6.738;2023-06-24T00:48:33;29.35;;;27.25;;
48588;SDS011;34369;51.174;6.738;2023-06-24T00:51:11;29.73;;;27.73;;
48588;SDS011;34369;51.174;6.738;2023-06-24T00:53:43;28.90;;;26.90;;
48588;SDS011;34369;51.174;6.738;2023-06-24T00:56:15;28.95;;;26.95;;
48588;SDS011;34369;51.174;6.738;2023-06-24T00:58:49;30.00;;;27.63;;
48588;SDS011;34369;51.174;6.738;2023-06-24T01:01:22;30.13;;;27.92;;
48588;SDS011;34369;51.174;6.738;2023-06-24T01:03:54;29.75;;;27.65;;
48588;SDS011;34369;51.174;6.738;2023-06-24T01:06:29;30.23;;;27.83;;
48588;SDS011;34369;51.174;6.738;2023-06-24T01:11:35;29.85;;;27.73;;
48588;SDS011;34369;51.174;6.738;2023-06-24T01:14:10;30.00;;;27.80;;
48588;SDS011;34369;51.174;6.738;2023-06-24T01:16:44;29.42;;;27.42;;
48588;SDS011;34369;51.174;6.738;2023-06-24T01:19:33;30.98;;;28.40;;
48588;SDS011;34369;51.174;6.738;2023-06-24T01:22:35;29.65;;;27.50;;
48588;SDS011;34369;51.174;6.738;2023-06-24T01:25:33;30.25;;;27.75;;
48588;SDS011;34369;51.174;6.738;2023-06-24T01:28:25;29.85;;;27.65;;
48588;SDS011;34369;51.174;6.738;2023-06-24T01:34:24;30.70;;;28.42;;
48588;SDS011;34369;51.174;6.738;2023-06-24T01:37:03;30.05;;;27.75;;
48588;SDS011;34369;51.174;6.738;2023-06-24T01:39:46;30.92;;;28.60;;
48588;SDS011;34369;51.174;6.738;2023-06-24T01:42:21;30.67;;;28.50;;
48588;SDS011;34369;51.174;6.738;2023-06-24T01:44:54;30.80;;;28.60;;
48588;SDS011;34369;51.174;6.738;2023-06-24T01:47:30;30.80;;;28.52;;
48588;SDS011;34369;51.174;6.738;2023-06-24T01:50:02;29.23;;;27.23;;
48588;SDS011;34369;51.174;6.738;2023-06-24T01:52:38;29.25;;;27.17;;
48588;SDS011;34369;51.174;6.738;2023-06-24T01:55:17;30.20;;;28.13;;
48588;SDS011;34369;51.174;6.738;2023-06-24T01:57:52;30.00;;;27.80;;
48588;SDS011;34369;51.174;6.738;2023-06-24T02:00:26;30.55;;;28.40;;
48588;SDS011;34369;51.174;6.738;2023-06-24T02:03:01;30.40;;;28.10;;
48588;SDS011;34369;51.174;6.738;2023-06-24T02:05:36;30.42;;;28.23;;
48588;SDS011;34369;51.174;6.738;2023-06-24T02:08:10;31.17;;;28.98;;
48588;SDS011;34369;51.174;6.738;2023-06-24T02:10:43;30.27;;;28.08;;
48588;SDS011;34369;51.174;6.738;2023-06-24T02:13:18;30.77;;;28.65;;
48588;SDS011;34369;51.174;6.738;2023-06-24T02:15:51;29.85;;;27.85;;
48588;SDS011;34369;51.174;6.738;2023-06-24T02:18:26;30.10;;;28.00;;
48588;SDS011;34369;51.174;6.738;2023-06-24T02:20:59;31.25;;;29.10;;
48588;SDS011;34369;51.174;6.738;2023-06-24T02:23:32;30.92;;;28.60;;
48588;SDS011;34369;51.174;6.738;2023-06-24T02:26:07;31.52;;;29.30;;
48588;SDS011;34369;51.174;6.738;2023-06-24T02:28:41;31.63;;;29.25;;
48588;SDS011;34369;51.174;6.738;2023-06-24T02:31:16;31.10;;;28.90;;
48588;SDS011;34369;51.174;6.738;2023-06-24T02:33:50;30.95;;;28.70;;
48588;SDS011;34369;51.174;6.738;2023-06-24T02:36:23;31.63;;;29.13;;
48588;SDS011;34369;51.174;6.738;2023-06-24T02:38:55;31.00;;;28.80;;
48588;SDS011;34369;51.174;6.738;2023-06-24T02:41:29;30.98;;;28.77;;
48588;SDS011;34369;51.174;6.738;2023-06-24T02:44:02;31.83;;;29.38;;
48588;SDS011;34369;51.174;6.738;2023-06-24T02:46:34;32.10;;;29.73;;
48588;SDS011;34369;51.174;6.738;2023-06-24T02:49:13;31.35;;;29.05;;
48588;SDS011;34369;51.174;6.738;2023-06-24T02:51:48;32.58;;;30.15;;
48588;SDS011;34369;51.174;6.738;2023-06-24T02:54:21;31.95;;;29.55;;
48588;SDS011;34369;51.174;6.738;2023-06-24T02:56:55;32.42;;;30.05;;
48588;SDS011;34369;51.174;6.738;2023-06-24T02:59:28;32.13;;;29.85;;
48588;SDS011;34369;51.174;6.738;2023-06-24T03:02:01;32.67;;;30.27;;
48588;SDS011;34369;51.174;6.738;2023-06-24T03:04:38;32.15;;;29.80;;
48588;SDS011;34369;51.174;6.738;2023-06-24T03:07:10;33.00;;;30.55;;
48588;SDS011;34369;51.174;6.738;2023-06-24T03:09:42;30.85;;;28.63;;
48588;SDS011;34369;51.174;6.738;2023-06-24T03:12:15;32.40;;;29.90;;
48588;SDS011;34369;51.174;6.738;2023-06-24T03:14:49;32.08;;;29.60;;
48588;SDS011;34369;51.174;6.738;2023-06-24T03:17:23;31.88;;;29.58;;
48588;SDS011;34369;51.174;6.738;2023-06-24T03:19:59;31.67;;;29.40;;
48588;SDS011;34369;51.174;6.738;2023-06-24T03:22:32;32.42;;;30.02;;
48588;SDS011;34369;51.174;6.738;2023-06-24T03:25:04;32.33;;;30.02;;
48588;SDS011;34369;51.174;6.738;2023-06-24T03:27:36;32.63;;;30.17;;
48588;SDS011;34369;51.174;6.738;2023-06-24T03:30:11;32.80;;;30.42;;
48588;SDS011;34369;51.174;6.738;2023-06-24T03:32:44;32.67;;;30.17;;
48588;SDS011;34369;51.174;6.738;2023-06-24T03:35:18;32.20;;;29.70;;
48588;SDS011;34369;51.174;6.738;2023-06-24T03:37:52;31.25;;;29.05;;
48588;SDS011;34369;51.174;6.738;2023-06-24T03:40:25;32.97;;;30.27;;
48588;SDS011;34369;51.174;6.738;2023-06-24T03:42:59;32.90;;;30.50;;
48588;SDS011;34369;51.174;6.738;2023-06-24T03:45:31;32.92;;;30.52;;
48588;SDS011;34369;51.174;6.738;2023-06-24T03:48:04;31.83;;;29.52;;
48588;SDS011;34369;51.174;6.738;2023-06-24T03:50:39;33.88;;;31.13;;
48588;SDS011;34369;51.174;6.738;2023-06-24T03:53:11;31.98;;;29.70;;
48588;SDS011;34369;51.174;6.738;2023-06-24T03:55:44;32.45;;;30.02;;
48588;SDS011;34369;51.174;6.738;2023-06-24T03:58:16;33.25;;;30.80;;
48588;SDS011;34369;51.174;6.738;2023-06-24T04:00:51;32.78;;;30.35;;
48588;SDS011;34369;51.174;6.738;2023-06-24T04:03:26;32.35;;;30.05;;
48588;SDS011;34369;51.174;6.738;2023-06-24T04:06:01;32.53;;;30.05;;
48588;SDS011;34369;51.174;6.738;2023-06-24T04:08:33;31.85;;;29.65;;
48588;SDS011;34369;51.174;6.738;2023-06-24T04:11:09;32.22;;;29.83;;
48588;SDS011;34369;51.174;6.738;2023-06-24T04:13:43;32.75;;;30.25;;
48588;SDS011;34369;51.174;6.738;2023-06-24T04:16:18;32.03;;;29.55;;
48588;SDS011;34369;51.174;6.738;2023-06-24T04:18:53;33.05;;;30.33;;
48588;SDS011;34369;51.174;6.738;2023-06-24T04:21:27;32.97;;;30.52;;
48588;SDS011;34369;51.174;6.738;2023-06-24T04:24:01;33.85;;;31.33;;
48588;SDS011;34369;51.174;6.738;2023-06-24T04:26:34;33.00;;;30.40;;
48588;SDS011;34369;51.174;6.738;2023-06-24T04:29:08;33.25;;;30.85;;
48588;SDS011;34369;51.174;6.738;2023-06-24T04:31:41;32.45;;;30.02;;
48588;SDS011;34369;51.174;6.738;2023-06-24T04:34:13;33.85;;;31.20;;
48588;SDS011;34369;51.174;6.738;2023-06-24T04:36:47;32.95;;;30.45;;
48588;SDS011;34369;51.174;6.738;2023-06-24T04:39:20;33.97;;;31.38;;
48588;SDS011;34369;51.174;6.738;2023-06-24T04:41:52;33.20;;;30.70;;
48588;SDS011;34369;51.174;6.738;2023-06-24T04:44:24;34.13;;;31.33;;
48588;SDS011;34369;51.174;6.738;2023-06-24T04:46:57;33.83;;;30.92;;
48588;SDS011;34369;51.174;6.738;2023-06-24T04:49:29;33.50;;;31.00;;
48588;SDS011;34369;51.174;6.738;2023-06-24T04:52:05;33.25;;;30.48;;
48588;SDS011;34369;51.174;6.738;2023-06-24T04:54:39;33.92;;;31.15;;
48588;SDS011;34369;51.174;6.738;2023-06-24T04:57:22;33.35;;;30.85;;
48588;SDS011;34369;51.174;6.738;2023-06-24T04:59:57;32.33;;;29.93;;
48588;SDS011;34369;51.174;6.738;2023-06-24T05:02:31;32.92;;;30.27;;
48588;SDS011;34369;51.174;6.738;2023-06-24T05:05:03;34.20;;;31.58;;
48588;SDS011;34369;51.174;6.738;2023-06-24T05:07:38;32.78;;;30.33;;
48588;SDS011;34369;51.174;6.738;2023-06-24T05:10:10;32.45;;;30.00;;
48588;SDS011;34369;51.174;6.738;2023-06-24T05:12:44;32.95;;;30.45;;
48588;SDS011;34369;51.174;6.738;2023-06-24T05:15:16;32.92;;;30.45;;
48588;SDS011;34369;51.174;6.738;2023-06-24T05:17:52;32.95;;;30.48;;
48588;SDS011;34369;51.174;6.738;2023-06-24T05:20:25;33.28;;;30.77;;
48588;SDS011;34369;51.174;6.738;2023-06-24T05:22:59;32.30;;;29.77;;
48588;SDS011;34369;51.174;6.738;2023-06-24T05:25:32;33.70;;;31.20;;
48588;SDS011;34369;51.174;6.738;2023-06-24T05:28:05;32.90;;;30.40;;
48588;SDS011;34369;51.174;6.738;2023-06-24T05:30:37;31.52;;;29.10;;
48588;SDS011;34369;51.174;6.738;2023-06-24T05:33:10;31.27;;;28.98;;
48588;SDS011;34369;51.174;6.738;2023-06-24T05:35:42;32.40;;;29.73;;
48588;SDS011;34369;51.174;6.738;2023-06-24T05:38:16;32.55;;;30.08;;
48588;SDS011;34369;51.174;6.738;2023-06-24T05:40:48;32.08;;;29.58;;
48588;SDS011;34369;51.174;6.738;2023-06-24T05:43:21;31.95;;;29.30;;
48588;SDS011;34369;51.174;6.738;2023-06-24T05:45:53;31.88;;;29.45;;
48588;SDS011;34369;51.174;6.738;2023-06-24T05:48:26;32.33;;;29.85;;
48588;SDS011;34369;51.174;6.738;2023-06-24T05:50:59;30.98;;;28.65;;
48588;SDS011;34369;51.174;6.738;2023-06-24T05:53:33;32.13;;;29.63;;
48588;SDS011;34369;51.174;6.738;2023-06-24T05:56:05;30.90;;;28.42;;
48588;SDS011;34369;51.174;6.738;2023-06-24T05:58:38;29.92;;;27.60;;
48588;SDS011;34369;51.174;6.738;2023-06-24T06:01:10;29.42;;;26.95;;
48588;SDS011;34369;51.174;6.738;2023-06-24T06:03:43;30.33;;;27.73;;
48588;SDS011;34369;51.174;6.738;2023-06-24T06:06:16;30.67;;;28.17;;
48588;SDS011;34369;51.174;6.738;2023-06-24T06:08:50;31.00;;;28.50;;
48588;SDS011;34369;51.174;6.738;2023-06-24T06:11:22;30.23;;;27.80;;
48588;SDS011;34369;51.174;6.738;2023-06-24T06:13:54;30.73;;;28.13;;
48588;SDS011;34369;51.174;6.738;2023-06-24T06:16:26;29.95;;;27.42;;
48588;SDS011;34369;51.174;6.738;2023-06-24T06:18:59;29.88;;;27.45;;
48588;SDS011;34369;51.174;6.738;2023-06-24T06:21:44;28.52;;;26.23;;
48588;SDS011;34369;51.174;6.738;2023-06-24T06:24:38;29.52;;;26.92;;
48588;SDS011;34369;51.174;6.738;2023-06-24T06:27:11;29.80;;;27.27;;
48588;SDS011;34369;51.174;6.738;2023-06-24T06:29:55;29.48;;;27.08;;
48588;SDS011;34369;51.174;6.738;2023-06-24T06:33:22;28.58;;;26.23;;
48588;SDS011;34369;51.174;6.738;2023-06-24T06:35:55;28.48;;;26.15;;
48588;SDS011;34369;51.174;6.738;2023-06-24T06:38:29;28.17;;;25.88;;
48588;SDS011;34369;51.174;6.738;2023-06-24T06:41:03;28.30;;;26.00;;
48588;SDS011;34369;51.174;6.738;2023-06-24T06:43:35;27.52;;;25.50;;
48588;SDS011;34369;51.174;6.738;2023-06-24T06:46:08;26.25;;;24.25;;
48588;SDS011;34369;51.174;6.738;2023-06-24T06:48:40;27.10;;;24.83;;
48588;SDS011;34369;51.174;6.738;2023-06-24T06:51:12;26.98;;;24.77;;
48588;SDS011;34369;51.174;6.738;2023-06-24T06:53:45;26.88;;;24.77;;
48588;SDS011;34369;51.174;6.738;2023-06-24T06:56:22;26.95;;;24.85;;
48588;SDS011;34369;51.174;6.738;2023-06-24T06:58:56;26.20;;;24.20;;
48588;SDS011;34369;51.174;6.738;2023-06-24T07:01:28;26.23;;;24.23;;
48588;SDS011;34369;51.174;6.738;2023-06-24T07:04:01;27.23;;;25.13;;
48588;SDS011;34369;51.174;6.738;2023-06-24T07:06:34;26.05;;;24.02;;
48588;SDS011;34369;51.174;6.738;2023-06-24T07:09:07;26.77;;;24.50;;
48588;SDS011;34369;51.174;6.738;2023-06-24T07:11:41;26.10;;;24.10;;
48588;SDS011;34369;51.174;6.738;2023-06-24T07:14:18;25.20;;;23.27;;
48588;SDS011;34369;51.174;6.738;2023-06-24T07:16:51;26.42;;;22.85;;
48588;SDS011;34369;51.174;6.738;2023-06-24T07:19:24;25.90;;;23.80;;
48588;SDS011;34369;51.174;6.738;2023-06-24T07:21:57;24.73;;;22.70;;
48588;SDS011;34369;51.174;6.738;2023-06-24T07:24:29;24.90;;;22.90;;
48588;SDS011;34369;51.174;6.738;2023-06-24T07:27:04;25.52;;;23.52;;
48588;SDS011;34369;51.174;6.738;2023-06-24T07:29:37;24.77;;;22.88;;
48588;SDS011;34369;51.174;6.738;2023-06-24T07:32:09;24.90;;;22.77;;
48588;SDS011;34369;51.174;6.738;2023-06-24T07:34:42;25.30;;;23.30;;
48588;SDS011;34369;51.174;6.738;2023-06-24T07:37:16;24.63;;;22.75;;
48588;SDS011;34369;51.174;6.738;2023-06-24T07:39:48;25.27;;;23.15;;
48588;SDS011;34369;51.174;6.738;2023-06-24T07:42:23;26.23;;;24.13;;
48588;SDS011;34369;51.174;6.738;2023-06-24T07:44:56;25.17;;;23.08;;
48588;SDS011;34369;51.174;6.738;2023-06-24T07:47:28;23.98;;;22.17;;
48588;SDS011;34369;51.174;6.738;2023-06-24T07:50:02;24.65;;;22.75;;
48588;SDS011;34369;51.174;6.738;2023-06-24T07:52:36;24.58;;;22.65;;
48588;SDS011;34369;51.174;6.738;2023-06-24T07:55:09;24.13;;;22.23;;
48588;SDS011;34369;51.174;6.738;2023-06-24T07:57:46;24.90;;;22.85;;
48588;SDS011;34369;51.174;6.738;2023-06-24T08:00:18;23.25;;;21.35;;
48588;SDS011;34369;51.174;6.738;2023-06-24T08:02:50;23.15;;;21.25;;
48588;SDS011;34369;51.174;6.738;2023-06-24T08:05:23;23.48;;;21.48;;
48588;SDS011;34369;51.174;6.738;2023-06-24T08:07:58;23.10;;;21.20;;
48588;SDS011;34369;51.174;6.738;2023-06-24T08:10:30;22.70;;;20.77;;
48588;SDS011;34369;51.174;6.738;2023-06-24T08:13:05;22.58;;;20.63;;
48588;SDS011;34369;51.174;6.738;2023-06-24T08:15:37;21.08;;;19.30;;
48588;SDS011;34369;51.174;6.738;2023-06-24T08:18:10;21.33;;;19.52;;
48588;SDS011;34369;51.174;6.738;2023-06-24T08:20:42;21.52;;;19.73;;
48588;SDS011;34369;51.174;6.738;2023-06-24T08:23:14;20.52;;;18.83;;
48588;SDS011;34369;51.174;6.738;2023-06-24T08:25:47;21.60;;;19.80;;
48588;SDS011;34369;51.174;6.738;2023-06-24T08:28:21;21.50;;;19.77;;
48588;SDS011;34369;51.174;6.738;2023-06-24T08:30:53;21.70;;;19.85;;
48588;SDS011;34369;51.174;6.738;2023-06-24T08:33:26;21.95;;;20.15;;
48588;SDS011;34369;51.174;6.738;2023-06-24T08:35:58;32.75;;;23.27;;
48588;SDS011;34369;51.174;6.738;2023-06-24T08:38:31;21.98;;;19.88;;
48588;SDS011;34369;51.174;6.738;2023-06-24T08:41:03;21.05;;;19.13;;
48588;SDS011;34369;51.174;6.738;2023-06-24T08:43:36;20.38;;;18.58;;
48588;SDS011;34369;51.174;6.738;2023-06-24T08:46:11;19.73;;;17.97;;
48588;SDS011;34369;51.174;6.738;2023-06-24T08:48:48;19.55;;;17.88;;
48588;SDS011;34369;51.174;6.738;2023-06-24T08:51:20;20.00;;;18.10;;
48588;SDS011;34369;51.174;6.738;2023-06-24T08:53:59;18.98;;;17.27;;
48588;SDS011;34369;51.174;6.738;2023-06-24T08:56:31;19.50;;;17.88;;
48588;SDS011;34369;51.174;6.738;2023-06-24T08:59:05;19.73;;;18.02;;
48588;SDS011;34369;51.174;6.738;2023-06-24T09:01:37;20.08;;;18.38;;
48588;SDS011;34369;51.174;6.738;2023-06-24T09:04:11;19.30;;;17.67;;
48588;SDS011;34369;51.174;6.738;2023-06-24T09:06:43;19.73;;;18.02;;
48588;SDS011;34369;51.174;6.738;2023-06-24T09:09:19;19.75;;;18.05;;
48588;SDS011;34369;51.174;6.738;2023-06-24T09:11:54;19.33;;;17.60;;
48588;SDS011;34369;51.174;6.738;2023-06-24T09:14:30;20.10;;;18.40;;
48588;SDS011;34369;51.174;6.738;2023-06-24T09:17:03;19.83;;;17.98;;
48588;SDS011;34369;51.174;6.738;2023-06-24T09:19:36;19.92;;;18.27;;
48588;SDS011;34369;51.174;6.738;2023-06-24T09:22:13;19.55;;;17.75;;
48588;SDS011;34369;51.174;6.738;2023-06-24T09:24:49;19.95;;;18.33;;
48588;SDS011;34369;51.174;6.738;2023-06-24T09:27:31;19.33;;;17.67;;
48588;SDS011;34369;51.174;6.738;2023-06-24T09:32:54;19.00;;;17.20;;
48588;SDS011;34369;51.174;6.738;2023-06-24T09:35:27;19.55;;;17.95;;
48588;SDS011;34369;51.174;6.738;2023-06-24T09:37:59;19.15;;;17.55;;
48588;SDS011;34369;51.174;6.738;2023-06-24T09:40:35;18.67;;;17.17;;
48588;SDS011;34369;51.174;6.738;2023-06-24T09:43:16;19.48;;;17.77;;
48588;SDS011;34369;51.174;6.738;2023-06-24T09:45:58;19.60;;;17.90;;
48588;SDS011;34369;51.174;6.738;2023-06-24T09:48:32;19.52;;;17.63;;
48588;SDS011;34369;51.174;6.738;2023-06-24T09:51:05;19.73;;;17.92;;
48588;SDS011;34369;51.174;6.738;2023-06-24T09:53:39;20.40;;;18.80;;
48588;SDS011;34369;51.174;6.738;2023-06-24T09:56:14;19.92;;;18.23;;
48588;SDS011;34369;51.174;6.738;2023-06-24T09:58:47;20.73;;;18.92;;
48588;SDS011;34369;51.174;6.738;2023-06-24T10:01:21;20.75;;;19.08;;
48588;SDS011;34369;51.174;6.738;2023-06-24T10:03:54;21.25;;;19.45;;
48588;SDS011;34369;51.174;6.738;2023-06-24T10:06:29;21.08;;;19.27;;
48588;SDS011;34369;51.174;6.738;2023-06-24T10:09:02;21.42;;;19.63;;
48588;SDS011;34369;51.174;6.738;2023-06-24T10:11:38;22.08;;;20.27;;
48588;SDS011;34369;51.174;6.738;2023-06-24T10:14:11;21.83;;;19.92;;
48588;SDS011;34369;51.174;6.738;2023-06-24T10:16:44;22.23;;;20.42;;
48588;SDS011;34369;51.174;6.738;2023-06-24T10:19:18;22.00;;;20.20;;
48588;SDS011;34369;51.174;6.738;2023-06-24T10:21:52;21.52;;;19.83;;
48588;SDS011;34369;51.174;6.738;2023-06-24T10:24:29;23.52;;;20.55;;
48588;SDS011;34369;51.174;6.738;2023-06-24T10:27:06;20.88;;;19.08;;
48588;SDS011;34369;51.174;6.738;2023-06-24T10:29:41;21.20;;;19.45;;
48588;SDS011;34369;51.174;6.738;2023-06-24T10:32:19;20.92;;;19.13;;
48588;SDS011;34369;51.174;6.738;2023-06-24T10:37:31;20.23;;;18.52;;
48588;SDS011;34369;51.174;6.738;2023-06-24T10:40:05;20.95;;;19.23;;
48588;SDS011;34369;51.174;6.738;2023-06-24T10:42:39;21.02;;;19.33;;
48588;SDS011;34369;51.174;6.738;2023-06-24T10:45:13;21.08;;;19.38;;
48588;SDS011;34369;51.174;6.738;2023-06-24T10:47:52;20.92;;;19.23;;
48588;SDS011;34369;51.174;6.738;2023-06-24T10:50:31;20.75;;;19.13;;
48588;SDS011;34369;51.174;6.738;2023-06-24T10:53:15;20.90;;;19.20;;
48588;SDS011;34369;51.174;6.738;2023-06-24T10:55:49;21.27;;;19.48;;
48588;SDS011;34369;51.174;6.738;2023-06-24T10:58:22;21.20;;;19.30;;
48588;SDS011;34369;51.174;6.738;2023-06-24T11:01:05;20.23;;;18.63;;
48588;SDS011;34369;51.174;6.738;2023-06-24T11:03:40;20.42;;;18.77;;
48588;SDS011;34369;51.174;6.738;2023-06-24T11:06:13;20.33;;;18.73;;
48588;SDS011;34369;51.174;6.738;2023-06-24T11:08:45;20.90;;;19.20;;
48588;SDS011;34369;51.174;6.738;2023-06-24T11:11:18;20.05;;;18.55;;
48588;SDS011;34369;51.174;6.738;2023-06-24T11:13:52;20.08;;;18.40;;
48588;SDS011;34369;51.174;6.738;2023-06-24T11:16:29;20.83;;;19.08;;
48588;SDS011;34369;51.174;6.738;2023-06-24T11:19:03;20.17;;;18.58;;
48588;SDS011;34369;51.174;6.738;2023-06-24T11:21:39;19.50;;;17.90;;
48588;SDS011;34369;51.174;6.738;2023-06-24T11:24:11;19.42;;;17.92;;
48588;SDS011;34369;51.174;6.738;2023-06-24T11:26:45;19.42;;;17.83;;
48588;SDS011;34369;51.174;6.738;2023-06-24T11:29:18;19.20;;;17.52;;
48588;SDS011;34369;51.174;6.738;2023-06-24T11:31:50;18.67;;;17.08;;
48588;SDS011;34369;51.174;6.738;2023-06-24T11:34:23;19.30;;;17.65;;
48588;SDS011;34369;51.174;6.738;2023-06-24T11:36:55;18.83;;;17.23;;
48588;SDS011;34369;51.174;6.738;2023-06-24T11:39:27;19.02;;;17.52;;
48588;SDS011;34369;51.174;6.738;2023-06-24T11:42:00;19.02;;;17.48;;
48588;SDS011;34369;51.174;6.738;2023-06-24T11:44:32;19.30;;;17.55;;
48588;SDS011;34369;51.174;6.738;2023-06-24T11:47:04;19.63;;;18.02;;
48588;SDS011;34369;51.174;6.738;2023-06-24T11:49:51;21.17;;;19.17;;
48588;SDS011;34369;51.174;6.738;2023-06-24T11:55:16;19.80;;;18.10;;
48588;SDS011;34369;51.174;6.738;2023-06-24T11:57:50;19.58;;;17.98;;
48588;SDS011;34369;51.174;6.738;2023-06-24T12:00:27;19.25;;;17.65;;
48588;SDS011;34369;51.174;6.738;2023-06-24T12:03:01;19.30;;;17.75;;
48588;SDS011;34369;51.174;6.738;2023-06-24T12:08:14;19.92;;;18.23;;
48588;SDS011;34369;51.174;6.738;2023-06-24T12:10:46;19.83;;;18.23;;
48588;SDS011;34369;51.174;6.738;2023-06-24T12:13:19;19.73;;;18.15;;
48588;SDS011;34369;51.174;6.738;2023-06-24T12:15:51;19.98;;;18.38;;
48588;SDS011;34369;51.174;6.738;2023-06-24T12:18:23;19.55;;;18.05;;
48588;SDS011;34369;51.174;6.738;2023-06-24T12:20:56;19.13;;;17.63;;
48588;SDS011;34369;51.174;6.738;2023-06-24T12:23:28;19.48;;;17.90;;
48588;SDS011;34369;51.174;6.738;2023-06-24T12:26:01;19.48;;;17.98;;
48588;SDS011;34369;51.174;6.738;2023-06-24T12:28:33;19.65;;;18.08;;
48588;SDS011;34369;51.174;6.738;2023-06-24T12:31:05;19.60;;;18.10;;
48588;SDS011;34369;51.174;6.738;2023-06-24T12:33:37;19.80;;;18.10;;
48588;SDS011;34369;51.174;6.738;2023-06-24T12:36:10;19.20;;;17.70;;
48588;SDS011;34369;51.174;6.738;2023-06-24T12:38:42;19.90;;;18.40;;
48588;SDS011;34369;51.174;6.738;2023-06-24T12:41:14;19.77;;;18.25;;
48588;SDS011;34369;51.174;6.738;2023-06-24T12:43:46;18.88;;;17.38;;
48588;SDS011;34369;51.174;6.738;2023-06-24T12:46:18;20.23;;;18.63;;
48588;SDS011;34369;51.174;6.738;2023-06-24T12:48:50;19.25;;;17.75;;
48588;SDS011;34369;51.174;6.738;2023-06-24T12:51:24;19.77;;;18.23;;
48588;SDS011;34369;51.174;6.738;2023-06-24T12:53:56;19.48;;;17.98;;
48588;SDS011;34369;51.174;6.738;2023-06-24T12:56:28;19.17;;;17.67;;
48588;SDS011;34369;51.174;6.738;2023-06-24T12:59:00;19.50;;;18.00;;
48588;SDS011;34369;51.174;6.738;2023-06-24T13:01:32;19.25;;;17.75;;
48588;SDS011;34369;51.174;6.738;2023-06-24T13:04:04;19.42;;;17.92;;
48588;SDS011;34369;51.174;6.738;2023-06-24T13:06:38;19.83;;;18.33;;
48588;SDS011;34369;51.174;6.738;2023-06-24T13:09:10;20.27;;;18.67;;
48588;SDS011;34369;51.174;6.738;2023-06-24T13:11:42;20.10;;;18.60;;
48588;SDS011;34369;51.174;6.738;2023-06-24T13:14:14;24.33;;;21.80;;
48588;SDS011;34369;51.174;6.738;2023-06-24T13:16:46;21.10;;;19.30;;
48588;SDS011;34369;51.174;6.738;2023-06-24T13:19:19;22.05;;;20.17;;
48588;SDS011;34369;51.174;6.738;2023-06-24T13:21:52;20.90;;;19.10;;
48588;SDS011;34369;51.174;6.738;2023-06-24T13:24:24;20.35;;;18.67;;
48588;SDS011;34369;51.174;6.738;2023-06-24T13:26:56;20.73;;;19.00;;
48588;SDS011;34369;51.174;6.738;2023-06-24T13:29:28;19.48;;;17.98;;
48588;SDS011;34369;51.174;6.738;2023-06-24T13:32:01;19.45;;;17.85;;
48588;SDS011;34369;51.174;6.738;2023-06-24T13:34:34;20.27;;;18.67;;
48588;SDS011;34369;51.174;6.738;2023-06-24T13:37:07;19.52;;;17.92;;
48588;SDS011;34369;51.174;6.738;2023-06-24T13:39:39;21.23;;;19.23;;
48588;SDS011;34369;51.174;6.738;2023-06-24T13:42:12;20.50;;;18.80;;
48588;SDS011;34369;51.174;6.738;2023-06-24T13:44:44;19.45;;;17.95;;
48588;SDS011;34369;51.174;6.738;2023-06-24T13:47:16;19.08;;;17.58;;
48588;SDS011;34369;51.174;6.738;2023-06-24T13:49:48;20.27;;;18.67;;
48588;SDS011;34369;51.174;6.738;2023-06-24T13:52:22;19.10;;;17.60;;
48588;SDS011;34369;51.174;6.738;2023-06-24T13:54:54;19.58;;;18.08;;
48588;SDS011;34369;51.174;6.738;2023-06-24T13:57:26;18.77;;;17.38;;
48588;SDS011;34369;51.174;6.738;2023-06-24T13:59:58;18.83;;;17.42;;
48588;SDS011;34369;51.174;6.738;2023-06-24T14:02:30;19.40;;;17.80;;
48588;SDS011;34369;51.174;6.738;2023-06-24T14:05:04;19.55;;;18.05;;
48588;SDS011;34369;51.174;6.738;2023-06-24T14:07:39;19.52;;;18.02;;
48588;SDS011;34369;51.174;6.738;2023-06-24T14:10:11;19.40;;;17.90;;
48588;SDS011;34369;51.174;6.738;2023-06-24T14:12:43;18.75;;;17.30;;
48588;SDS011;34369;51.174;6.738;2023-06-24T14:15:15;19.50;;;18.00;;
48588;SDS011;34369;51.174;6.738;2023-06-24T14:17:48;19.35;;;17.80;;
48588;SDS011;34369;51.174;6.738;2023-06-24T14:20:20;19.25;;;17.75;;
48588;SDS011;34369;51.174;6.738;2023-06-24T14:22:56;19.48;;;17.98;;
48588;SDS011;34369;51.174;6.738;2023-06-24T14:25:28;19.10;;;17.70;;
48588;SDS011;34369;51.174;6.738;2023-06-24T14:28:00;19.25;;;17.75;;
48588;SDS011;34369;51.174;6.738;2023-06-24T14:30:32;19.13;;;17.63;;
48588;SDS011;34369;51.174;6.738;2023-06-24T14:33:05;19.20;;;17.70;;
48588;SDS011;34369;51.174;6.738;2023-06-24T14:35:37;18.90;;;17.42;;
48588;SDS011;34369;51.174;6.738;2023-06-24T14:38:11;19.25;;;17.77;;
48588;SDS011;34369;51.174;6.738;2023-06-24T14:40:43;19.35;;;17.85;;
48588;SDS011;34369;51.174;6.738;2023-06-24T14:43:15;19.00;;;17.50;;
48588;SDS011;34369;51.174;6.738;2023-06-24T14:45:49;19.75;;;18.25;;
48588;SDS011;34369;51.174;6.738;2023-06-24T14:48:21;19.40;;;17.90;;
48588;SDS011;34369;51.174;6.738;2023-06-24T14:50:53;19.73;;;18.13;;
48588;SDS011;34369;51.174;6.738;2023-06-24T14:53:27;19.45;;;17.95;;
48588;SDS011;34369;51.174;6.738;2023-06-24T14:55:59;19.23;;;17.73;;
48588;SDS011;34369;51.174;6.738;2023-06-24T14:58:31;19.13;;;17.65;;
48588;SDS011;34369;51.174;6.738;2023-06-24T15:01:03;19.35;;;17.77;;
48588;SDS011;34369;51.174;6.738;2023-06-24T15:03:35;19.13;;;17.63;;
48588;SDS011;34369;51.174;6.738;2023-06-24T15:06:08;19.15;;;17.70;;
48588;SDS011;34369;51.174;6.738;2023-06-24T15:08:41;19.15;;;17.65;;
48588;SDS011;34369;51.174;6.738;2023-06-24T15:11:13;20.13;;;18.55;;
48588;SDS011;34369;51.174;6.738;2023-06-24T15:13:45;19.17;;;17.67;;
48588;SDS011;34369;51.174;6.738;2023-06-24T15:16:17;18.75;;;17.25;;
48588;SDS011;34369;51.174;6.738;2023-06-24T15:18:49;19.13;;;17.63;;
48588;SDS011;34369;51.174;6.738;2023-06-24T15:21:21;19.13;;;17.63;;